createdAt,value
2019-03-24T00:02:10.686Z,2.70
2019-03-24T00:04:39.350Z,2.70
2019-03-24T00:07:07.732Z,2.70
2019-03-24T00:09:36.387Z,2.70
2019-03-24T00:12:04.919Z,2.70
2019-03-24T00:14:33.393Z,2.60
2019-03-24T00:17:01.787Z,2.60
2019-03-24T00:19:30.231Z,2.50
2019-03-24T00:21:58.805Z,2.50
2019-03-24T00:24:27.241Z,2.50
2019-03-24T00:26:55.646Z,2.50
2019-03-24T00:29:24.054Z,2.40
2019-03-24T00:31:52.483Z,2.40
2019-03-24T00:34:20.870Z,2.40
2019-03-24T00:36:49.267Z,2.40
2019-03-24T00:39:17.747Z,2.40
2019-03-24T00:41:46.142Z,2.30
2019-03-24T00:44:14.831Z,2.30
2019-03-24T00:46:43.253Z,2.30
2019-03-24T00:49:11.685Z,2.20
2019-03-24T00:51:40.102Z,2.20
2019-03-24T00:54:08.481Z,2.20
2019-03-24T00:56:36.897Z,2.10
2019-03-24T00:59:05.474Z,2.10
2019-03-24T01:01:33.882Z,2.00
2019-03-24T01:04:02.300Z,2.00
2019-03-24T01:06:30.697Z,2.00
2019-03-24T01:08:59.089Z,2.10
2019-03-24T01:11:27.507Z,2.10
2019-03-24T01:13:55.894Z,2.00
2019-03-24T01:16:24.383Z,2.10
2019-03-24T01:18:53.025Z,2.00
2019-03-24T01:21:21.434Z,2.00
2019-03-24T01:23:49.831Z,1.90
2019-03-24T01:26:18.241Z,1.90
2019-03-24T01:28:46.638Z,1.90
2019-03-24T01:31:15.059Z,1.90
2019-03-24T01:33:43.769Z,1.90
2019-03-24T01:36:12.176Z,1.80
2019-03-24T01:38:40.570Z,1.80
2019-03-24T01:41:08.992Z,1.80
2019-03-24T01:43:37.373Z,1.70
2019-03-24T01:46:05.943Z,1.70
2019-03-24T01:48:34.425Z,1.70
2019-03-24T01:51:03.194Z,1.70
2019-03-24T01:53:31.730Z,1.70
2019-03-24T01:56:00.126Z,1.70
2019-03-24T01:58:28.647Z,1.60
2019-03-24T02:00:57.106Z,1.50
2019-03-24T02:03:25.498Z,1.50
2019-03-24T02:05:53.959Z,1.50
2019-03-24T02:08:22.369Z,1.50
2019-03-24T02:10:50.762Z,1.60
2019-03-24T02:13:19.174Z,1.60
2019-03-24T02:15:47.571Z,1.60
2019-03-24T02:18:15.958Z,1.50
2019-03-24T02:20:44.382Z,1.50
2019-03-24T02:23:12.789Z,1.40
2019-03-24T02:25:41.174Z,1.40
2019-03-24T02:28:09.688Z,1.40
2019-03-24T02:30:38.179Z,1.30
2019-03-24T02:33:12.311Z,1.30
2019-03-24T02:35:40.731Z,1.30
2019-03-24T02:38:09.152Z,1.20
2019-03-24T02:40:37.606Z,1.20
2019-03-24T02:43:06.022Z,1.20
2019-03-24T02:45:34.436Z,1.20
2019-03-24T02:48:02.850Z,1.10
2019-03-24T02:50:31.237Z,1.20
2019-03-24T02:52:59.639Z,1.10
2019-03-24T02:55:28.038Z,1.10
2019-03-24T02:57:56.464Z,1.20
2019-03-24T03:00:24.955Z,1.10
2019-03-24T03:02:53.371Z,1.10
2019-03-24T03:05:21.762Z,1.10
2019-03-24T03:07:50.187Z,1.00
2019-03-24T03:10:18.817Z,1.00
2019-03-24T03:12:47.882Z,1.00
2019-03-24T03:15:16.495Z,0.90
2019-03-24T03:17:44.879Z,0.90
2019-03-24T03:20:13.739Z,0.90
2019-03-24T03:22:42.456Z,0.90
2019-03-24T03:25:11.806Z,0.80
2019-03-24T03:27:40.290Z,0.80
2019-03-24T03:30:09.557Z,0.90
2019-03-24T03:32:38.224Z,0.80
2019-03-24T03:35:08.171Z,0.80
2019-03-24T03:37:36.601Z,0.80
2019-03-24T03:40:07.305Z,0.80
2019-03-24T03:42:35.927Z,0.80
2019-03-24T03:45:05.465Z,0.80
2019-03-24T03:47:33.874Z,0.80
2019-03-24T03:50:02.356Z,0.70
2019-03-24T03:52:30.784Z,0.70
2019-03-24T03:54:59.189Z,0.60
2019-03-24T03:57:27.577Z,0.60
2019-03-24T04:00:15.411Z,0.60
2019-03-24T04:02:43.807Z,0.60
2019-03-24T04:05:12.230Z,0.60
2019-03-24T04:07:40.986Z,0.60
2019-03-24T04:10:09.768Z,0.60
2019-03-24T04:12:38.140Z,0.50
2019-03-24T04:15:08.346Z,0.50
2019-03-24T04:17:36.767Z,0.50
2019-03-24T04:20:06.012Z,0.50
2019-03-24T04:22:34.482Z,0.50
2019-03-24T04:25:03.019Z,0.50
2019-03-24T04:27:31.436Z,0.40
2019-03-24T04:30:00.448Z,0.40
2019-03-24T04:32:28.913Z,0.40
2019-03-24T04:34:57.307Z,0.40
2019-03-24T04:37:25.730Z,0.30
2019-03-24T04:39:54.120Z,0.30
2019-03-24T04:42:22.862Z,0.30
2019-03-24T04:44:51.255Z,0.30
2019-03-24T04:47:19.654Z,0.30
2019-03-24T04:49:48.067Z,0.30
2019-03-24T04:52:16.477Z,0.20
2019-03-24T04:54:44.942Z,0.20
2019-03-24T04:57:13.360Z,0.20
2019-03-24T04:59:41.901Z,0.20
2019-03-24T05:02:10.299Z,0.20
2019-03-24T05:04:39.651Z,0.20
2019-03-24T05:07:09.305Z,0.20
2019-03-24T05:09:38.139Z,0.10
2019-03-24T05:12:06.534Z,0.20
2019-03-24T05:14:35.011Z,0.10
2019-03-24T05:17:03.426Z,0.20
2019-03-24T05:19:31.922Z,0.10
2019-03-24T05:22:00.310Z,0.10
2019-03-24T05:24:28.730Z,0.10
2019-03-24T05:26:57.126Z,0.10
2019-03-24T05:29:25.538Z,0.20
2019-03-24T05:31:53.950Z,0.20
2019-03-24T05:34:22.350Z,0.10
2019-03-24T05:36:50.767Z,0.20
2019-03-24T05:39:19.178Z,0.20
2019-03-24T05:41:47.626Z,0.20
2019-03-24T05:44:16.295Z,0.20
2019-03-24T05:46:44.758Z,0.20
2019-03-24T05:49:13.241Z,0.30
2019-03-24T05:51:41.959Z,0.30
2019-03-24T05:54:10.526Z,0.40
2019-03-24T05:56:38.939Z,0.40
2019-03-24T05:59:07.343Z,0.50
2019-03-24T06:01:35.758Z,0.50
2019-03-24T06:04:04.159Z,0.60
2019-03-24T06:06:32.602Z,0.70
2019-03-24T06:09:01.145Z,0.70
2019-03-24T06:11:29.554Z,0.80
2019-03-24T06:13:57.970Z,0.90
2019-03-24T06:16:26.374Z,1.00
2019-03-24T06:18:54.786Z,1.10
2019-03-24T06:21:23.262Z,1.20
2019-03-24T06:23:51.883Z,1.20
2019-03-24T06:26:20.359Z,1.30
2019-03-24T06:28:48.754Z,1.40
2019-03-24T06:31:17.166Z,1.50
2019-03-24T06:33:45.595Z,1.60
2019-03-24T06:36:13.994Z,1.60
2019-03-24T06:38:42.406Z,1.80
2019-03-24T06:41:11.146Z,1.90
2019-03-24T06:43:39.596Z,2.00
2019-03-24T06:46:08.142Z,2.10
2019-03-24T06:48:36.550Z,2.20
2019-03-24T06:51:04.979Z,2.40
2019-03-24T06:53:33.446Z,2.50
2019-03-24T06:56:01.932Z,2.60
2019-03-24T06:58:30.335Z,2.70
2019-03-24T07:00:58.757Z,2.80
2019-03-24T07:03:29.895Z,2.90
2019-03-24T07:05:58.430Z,3.00
2019-03-24T07:08:27.246Z,3.20
2019-03-24T07:10:55.619Z,3.30
2019-03-24T07:13:24.038Z,3.40
2019-03-24T07:15:52.749Z,3.60
2019-03-24T07:18:21.143Z,3.80
2019-03-24T07:20:49.563Z,3.90
2019-03-24T07:23:17.958Z,4.10
2019-03-24T07:25:46.358Z,4.30
2019-03-24T07:28:14.816Z,4.40
2019-03-24T07:30:43.230Z,4.60
2019-03-24T07:33:13.193Z,4.80
2019-03-24T07:35:41.662Z,5.00
2019-03-24T07:38:10.054Z,5.20
2019-03-24T07:40:38.466Z,5.30
2019-03-24T07:43:06.888Z,5.50
2019-03-24T07:45:35.451Z,5.70
2019-03-24T07:48:03.918Z,5.80
2019-03-24T07:50:32.331Z,6.00
2019-03-24T07:53:00.738Z,6.10
2019-03-24T07:55:29.150Z,6.30
2019-03-24T07:57:58.008Z,6.50
2019-03-24T08:00:35.226Z,6.60
2019-03-24T08:03:03.872Z,6.70
2019-03-24T08:05:32.396Z,6.80
2019-03-24T08:08:00.792Z,6.90
2019-03-24T08:10:29.497Z,7.10
2019-03-24T08:12:58.055Z,7.20
2019-03-24T08:15:26.578Z,7.30
2019-03-24T08:17:54.987Z,7.50
2019-03-24T08:20:23.382Z,7.60
2019-03-24T08:22:51.999Z,7.60
2019-03-24T08:25:20.385Z,7.70
2019-03-24T08:27:48.808Z,7.80
2019-03-24T08:30:20.291Z,7.90
2019-03-24T08:32:48.753Z,8.00
2019-03-24T08:35:17.174Z,8.10
2019-03-24T08:37:45.582Z,8.20
2019-03-24T08:40:14.067Z,8.30
2019-03-24T08:42:42.649Z,8.40
2019-03-24T08:45:14.151Z,8.50
2019-03-24T08:47:42.930Z,8.60
2019-03-24T08:50:11.879Z,8.70
2019-03-24T08:52:40.302Z,8.80
2019-03-24T08:55:08.771Z,8.90
2019-03-24T08:57:37.790Z,9.00
2019-03-24T09:00:06.843Z,9.10
2019-03-24T09:02:35.468Z,9.20
2019-03-24T09:05:05.762Z,9.20
2019-03-24T09:07:34.174Z,9.30
2019-03-24T09:10:02.654Z,9.40
2019-03-24T09:12:31.412Z,9.40
2019-03-24T09:15:01.641Z,9.50
2019-03-24T09:17:30.119Z,9.60
2019-03-24T09:19:58.538Z,9.70
2019-03-24T09:22:26.951Z,9.70
2019-03-24T09:24:55.354Z,9.80
2019-03-24T09:27:24.123Z,9.90
2019-03-24T09:29:52.588Z,10.00
2019-03-24T09:32:21.072Z,10.10
2019-03-24T09:34:49.491Z,10.20
2019-03-24T09:37:17.907Z,10.30
2019-03-24T09:39:46.302Z,10.40
2019-03-24T09:42:14.731Z,10.50
2019-03-24T09:44:43.213Z,10.50
2019-03-24T09:47:11.643Z,10.60
2019-03-24T09:49:40.239Z,10.70
2019-03-24T09:52:08.686Z,10.70
2019-03-24T09:54:37.176Z,10.80
2019-03-24T09:57:06.701Z,10.80
2019-03-24T09:59:35.307Z,10.90
2019-03-24T10:02:03.714Z,10.90
2019-03-24T10:04:32.126Z,11.00
2019-03-24T10:07:00.526Z,11.00
2019-03-24T10:09:28.939Z,11.10
2019-03-24T10:11:57.408Z,11.10
2019-03-24T10:14:25.826Z,11.20
2019-03-24T10:16:55.673Z,11.30
2019-03-24T10:19:24.412Z,11.30
2019-03-24T10:21:52.840Z,11.40
2019-03-24T10:24:21.266Z,11.40
2019-03-24T10:26:49.678Z,11.50
2019-03-24T10:29:18.079Z,11.50
2019-03-24T10:31:46.576Z,11.60
2019-03-24T10:34:15.035Z,11.60
2019-03-24T10:36:43.455Z,11.70
2019-03-24T10:39:12.147Z,11.70
2019-03-24T10:41:40.842Z,11.80
2019-03-24T10:44:09.338Z,11.90
2019-03-24T10:46:37.755Z,12.00
2019-03-24T10:49:06.308Z,12.00
2019-03-24T10:51:34.728Z,12.10
2019-03-24T10:54:03.146Z,12.10
2019-03-24T10:56:31.555Z,12.20
2019-03-24T10:58:59.978Z,12.30
2019-03-24T11:01:28.403Z,12.30
2019-03-24T11:03:56.811Z,12.40
2019-03-24T11:06:25.283Z,12.50
2019-03-24T11:08:53.701Z,12.60
2019-03-24T11:11:22.126Z,12.60
2019-03-24T11:13:50.617Z,12.70
2019-03-24T11:16:19.054Z,12.70
2019-03-24T11:18:47.534Z,12.80
2019-03-24T11:21:15.946Z,12.80
2019-03-24T11:23:44.364Z,12.90
2019-03-24T11:26:12.766Z,12.90
2019-03-24T11:28:41.272Z,13.00
2019-03-24T11:31:09.681Z,13.10
2019-03-24T11:33:38.114Z,13.20
2019-03-24T11:36:06.690Z,13.30
2019-03-24T11:38:35.224Z,13.40
2019-03-24T11:41:03.886Z,13.50
2019-03-24T11:43:32.287Z,13.60
2019-03-24T11:46:00.708Z,13.70
2019-03-24T11:48:29.114Z,13.70
2019-03-24T11:50:57.586Z,13.80
2019-03-24T11:53:26.179Z,13.90
2019-03-24T11:55:54.644Z,13.90
2019-03-24T11:58:23.068Z,13.90
2019-03-24T12:00:51.467Z,14.00
2019-03-24T12:03:19.887Z,14.00
2019-03-24T12:05:48.611Z,14.10
2019-03-24T12:08:17.052Z,14.20
2019-03-24T12:10:45.499Z,14.20
2019-03-24T12:13:13.983Z,14.20
2019-03-24T12:15:42.398Z,14.30
2019-03-24T12:18:11.285Z,14.40
2019-03-24T12:20:39.710Z,14.50
2019-03-24T12:23:08.288Z,14.50
2019-03-24T12:25:36.750Z,14.60
2019-03-24T12:28:05.254Z,14.70
2019-03-24T12:30:33.654Z,14.70
2019-03-24T12:33:02.794Z,14.70
2019-03-24T12:35:31.467Z,14.80
2019-03-24T12:37:59.871Z,14.80
2019-03-24T12:40:28.325Z,14.90
2019-03-24T12:42:56.994Z,15.00
2019-03-24T12:45:25.410Z,15.00
2019-03-24T12:47:53.895Z,15.00
2019-03-24T12:50:30.909Z,15.10
2019-03-24T12:52:52.441Z,15.10
2019-03-24T12:55:20.871Z,15.10
2019-03-24T12:57:49.271Z,15.10
2019-03-24T13:00:35.326Z,15.20
2019-03-24T13:03:04.173Z,15.20
2019-03-24T13:05:32.597Z,15.20
2019-03-24T13:08:12.428Z,15.10
2019-03-24T13:10:42.398Z,15.10
2019-03-24T13:13:11.599Z,15.20
2019-03-24T13:15:40.565Z,15.20
2019-03-24T13:18:09.151Z,15.20
2019-03-24T13:20:38.752Z,15.30
2019-03-24T13:23:07.502Z,15.30
2019-03-24T13:25:36.412Z,15.30
2019-03-24T13:28:05.051Z,15.40
2019-03-24T13:30:33.472Z,15.40
2019-03-24T13:33:02.011Z,15.40
2019-03-24T13:35:30.446Z,15.40
2019-03-24T13:37:59.031Z,15.50
2019-03-24T13:40:27.434Z,15.50
2019-03-24T13:42:55.854Z,15.60
2019-03-24T13:45:24.327Z,15.60
2019-03-24T13:47:52.762Z,15.70
2019-03-24T13:50:30.914Z,15.70
2019-03-24T13:52:51.365Z,15.80
2019-03-24T13:55:20.021Z,15.80
2019-03-24T13:57:48.448Z,15.80
2019-03-24T14:00:17.838Z,15.80
2019-03-24T14:02:46.249Z,15.90
2019-03-24T14:05:14.663Z,15.90
2019-03-24T14:07:43.387Z,16.00
2019-03-24T14:10:12.230Z,16.00
2019-03-24T14:12:40.718Z,16.00
2019-03-24T14:15:09.286Z,16.00
2019-03-24T14:17:37.875Z,16.00
2019-03-24T14:20:08.314Z,15.90
2019-03-24T14:22:36.735Z,15.80
2019-03-24T14:25:08.712Z,15.80
2019-03-24T14:27:37.157Z,15.80
2019-03-24T14:30:07.931Z,15.80
2019-03-24T14:32:36.394Z,15.80
2019-03-24T14:35:06.201Z,15.80
2019-03-24T14:37:34.665Z,15.90
2019-03-24T14:40:04.598Z,15.90
2019-03-24T14:42:33.027Z,16.00
2019-03-24T14:45:01.484Z,16.00
2019-03-24T14:47:29.955Z,16.00
2019-03-24T14:49:58.355Z,16.10
2019-03-24T14:52:26.886Z,16.10
2019-03-24T14:54:55.491Z,16.10
2019-03-24T14:57:23.894Z,16.10
2019-03-24T14:59:52.313Z,16.10
2019-03-24T15:02:20.770Z,16.10
2019-03-24T15:04:49.208Z,16.10
2019-03-24T15:07:17.730Z,16.10
2019-03-24T15:09:46.131Z,16.10
2019-03-24T15:12:14.762Z,16.20
2019-03-24T15:14:43.191Z,16.20
2019-03-24T15:17:11.606Z,16.20
2019-03-24T15:19:40.023Z,16.20
2019-03-24T15:22:08.428Z,16.20
2019-03-24T15:24:36.857Z,16.30
2019-03-24T15:27:05.335Z,16.20
2019-03-24T15:29:33.843Z,16.20
2019-03-24T15:32:02.318Z,16.10
2019-03-24T15:34:30.722Z,16.00
2019-03-24T15:36:59.137Z,16.00
2019-03-24T15:39:27.544Z,16.00
2019-03-24T15:41:56.129Z,16.10
2019-03-24T15:44:24.643Z,16.20
2019-03-24T15:46:53.060Z,16.20
2019-03-24T15:49:21.477Z,16.30
2019-03-24T15:51:49.895Z,16.30
2019-03-24T15:54:18.542Z,16.30
2019-03-24T15:56:46.965Z,16.40
2019-03-24T15:59:15.395Z,16.30
2019-03-24T16:01:43.794Z,16.20
2019-03-24T16:04:12.198Z,16.10
2019-03-24T16:06:40.635Z,16.00
2019-03-24T16:09:09.459Z,15.90
2019-03-24T16:11:37.967Z,15.90
2019-03-24T16:14:06.702Z,15.80
2019-03-24T16:16:35.129Z,15.80
2019-03-24T16:19:22.946Z,15.70
2019-03-24T16:21:51.366Z,15.60
2019-03-24T16:24:19.969Z,15.50
2019-03-24T16:26:48.416Z,15.50
2019-03-24T16:29:16.985Z,15.40
2019-03-24T16:31:45.478Z,15.20
2019-03-24T16:34:14.216Z,15.10
2019-03-24T16:36:42.661Z,15.00
2019-03-24T16:39:11.062Z,14.80
2019-03-24T16:41:39.487Z,14.60
2019-03-24T16:44:07.902Z,14.40
2019-03-24T16:46:36.309Z,14.20
2019-03-24T16:49:05.109Z,14.00
2019-03-24T16:51:38.475Z,13.90
2019-03-24T16:54:04.012Z,13.80
2019-03-24T16:56:32.488Z,13.60
2019-03-24T16:59:00.899Z,13.50
2019-03-24T17:01:29.395Z,13.30
2019-03-24T17:03:57.789Z,13.20
2019-03-24T17:06:26.195Z,13.00
2019-03-24T17:08:54.611Z,12.80
2019-03-24T17:11:23.090Z,12.70
2019-03-24T17:13:51.505Z,12.60
2019-03-24T17:16:19.972Z,12.40
2019-03-24T17:18:48.397Z,12.30
2019-03-24T17:21:16.819Z,12.30
2019-03-24T17:23:45.503Z,12.20
2019-03-24T17:26:13.912Z,12.10
2019-03-24T17:28:42.398Z,11.90
2019-03-24T17:31:10.814Z,11.80
2019-03-24T17:33:39.407Z,11.60
2019-03-24T17:36:07.869Z,11.40
2019-03-24T17:38:36.351Z,11.30
2019-03-24T17:41:04.751Z,11.20
2019-03-24T17:43:33.232Z,11.10
2019-03-24T17:46:01.664Z,10.90
2019-03-24T17:48:30.066Z,10.90
2019-03-24T17:50:58.578Z,10.80
2019-03-24T17:53:26.990Z,10.80
2019-03-24T17:55:55.478Z,10.80
2019-03-24T17:58:24.046Z,10.90
2019-03-24T18:00:54.090Z,10.90
2019-03-24T18:03:22.491Z,10.90
2019-03-24T18:05:50.906Z,11.00
2019-03-24T18:08:19.419Z,11.00
2019-03-24T18:10:47.825Z,11.00
2019-03-24T18:13:16.224Z,11.00
2019-03-24T18:15:44.633Z,11.00
2019-03-24T18:18:13.034Z,10.90
2019-03-24T18:20:41.522Z,10.90
2019-03-24T18:23:10.083Z,11.00
2019-03-24T18:25:38.565Z,11.00
2019-03-24T18:28:07.235Z,11.10
2019-03-24T18:30:35.633Z,11.10
2019-03-24T18:33:04.526Z,11.10
2019-03-24T18:35:32.967Z,11.20
2019-03-24T18:38:01.387Z,11.20
2019-03-24T18:40:29.786Z,11.20
2019-03-24T18:42:58.300Z,11.10
2019-03-24T18:45:26.700Z,11.10
2019-03-24T18:47:55.110Z,11.10
2019-03-24T18:50:23.531Z,11.10
2019-03-24T18:52:51.971Z,11.10
2019-03-24T18:55:20.364Z,11.10
2019-03-24T18:57:48.776Z,11.10
2019-03-24T19:00:18.114Z,11.00
2019-03-24T19:02:46.538Z,11.00
2019-03-24T19:05:15.371Z,11.00
2019-03-24T19:07:43.861Z,10.90
2019-03-24T19:10:13.795Z,10.90
2019-03-24T19:12:42.255Z,10.90
2019-03-24T19:15:13.646Z,10.90
2019-03-24T19:17:42.114Z,10.80
2019-03-24T19:20:11.275Z,10.70
2019-03-24T19:22:39.738Z,10.70
2019-03-24T19:25:08.701Z,10.50
2019-03-24T19:27:37.183Z,10.40
2019-03-24T19:30:11.530Z,10.20
2019-03-24T19:32:39.943Z,10.10
2019-03-24T19:35:08.678Z,10.00
2019-03-24T19:37:37.522Z,10.00
2019-03-24T19:40:08.582Z,10.00
2019-03-24T19:42:42.443Z,10.10
2019-03-24T19:45:11.211Z,10.10
2019-03-24T19:47:40.015Z,10.20
2019-03-24T19:50:08.587Z,10.20
2019-03-24T19:52:44.553Z,10.30
2019-03-24T19:55:07.550Z,10.30
2019-03-24T19:57:35.972Z,10.30
2019-03-24T20:00:06.604Z,10.30
2019-03-24T20:02:35.004Z,10.30
2019-03-24T20:05:03.494Z,10.30
2019-03-24T20:07:31.959Z,10.30
2019-03-24T20:10:00.575Z,10.30
2019-03-24T20:12:28.980Z,10.30
2019-03-24T20:14:57.417Z,10.30
2019-03-24T20:17:25.851Z,10.30
2019-03-24T20:19:54.272Z,10.30
2019-03-24T20:22:22.758Z,10.30
2019-03-24T20:24:51.186Z,10.30
2019-03-24T20:27:19.586Z,10.30
2019-03-24T20:29:48.084Z,10.30
2019-03-24T20:32:16.781Z,10.30
2019-03-24T20:34:45.178Z,10.30
2019-03-24T20:37:13.583Z,10.30
2019-03-24T20:39:42.010Z,10.30
2019-03-24T20:42:10.414Z,10.30
2019-03-24T20:44:38.845Z,10.30
2019-03-24T20:47:07.406Z,10.20
2019-03-24T20:49:40.546Z,10.20
2019-03-24T20:52:08.991Z,10.20
2019-03-24T20:54:37.791Z,10.10
2019-03-24T20:57:06.202Z,10.10
2019-03-24T20:59:34.684Z,10.10
2019-03-24T21:02:03.094Z,10.00
2019-03-24T21:04:31.524Z,10.00
2019-03-24T21:06:59.918Z,10.00
2019-03-24T21:09:28.415Z,10.00
2019-03-24T21:11:56.811Z,10.00
2019-03-24T21:14:25.219Z,10.00
2019-03-24T21:16:53.709Z,10.00
2019-03-24T21:19:22.177Z,10.10
2019-03-24T21:21:50.657Z,10.00
2019-03-24T21:24:19.135Z,10.00
2019-03-24T21:26:47.531Z,10.00
2019-03-24T21:29:15.955Z,10.00
2019-03-24T21:31:44.369Z,10.00
2019-03-24T21:34:12.811Z,10.00
2019-03-24T21:36:41.314Z,10.00
2019-03-24T21:39:09.711Z,10.00
2019-03-24T21:41:38.126Z,10.00
2019-03-24T21:44:06.550Z,10.00
2019-03-24T21:46:35.023Z,10.00
2019-03-24T21:49:03.584Z,10.00
2019-03-24T21:51:32.128Z,10.00
2019-03-24T21:54:20.182Z,10.00
2019-03-24T21:56:48.721Z,10.00
2019-03-24T21:59:17.199Z,9.90
2019-03-24T22:01:45.914Z,9.90
2019-03-24T22:04:14.350Z,9.90
2019-03-24T22:06:42.742Z,9.80
2019-03-24T22:09:17.102Z,9.80
2019-03-24T22:11:45.657Z,9.70
2019-03-24T22:14:15.588Z,9.70
2019-03-24T22:16:44.194Z,9.70
2019-03-24T22:19:12.597Z,9.60
2019-03-24T22:21:41.000Z,9.60
2019-03-24T22:24:09.486Z,9.50
2019-03-24T22:26:38.066Z,9.50
2019-03-24T22:29:06.461Z,9.50
2019-03-24T22:31:34.938Z,9.50
2019-03-24T22:34:03.907Z,9.40
2019-03-24T22:36:32.332Z,9.40
2019-03-24T22:39:00.807Z,9.40
2019-03-24T22:41:29.217Z,9.30
2019-03-24T22:43:57.678Z,9.30
2019-03-24T22:46:26.085Z,9.30
2019-03-24T22:48:54.470Z,9.30
2019-03-24T22:51:22.978Z,9.20
2019-03-24T22:53:51.478Z,9.20
2019-03-24T22:56:19.954Z,9.20
2019-03-24T22:58:48.362Z,9.20
2019-03-24T23:01:17.690Z,9.20
2019-03-24T23:03:46.151Z,9.20
2019-03-24T23:06:14.638Z,9.10
2019-03-24T23:08:43.168Z,9.10
2019-03-24T23:11:11.594Z,9.10
2019-03-24T23:13:39.982Z,9.10
2019-03-24T23:16:08.415Z,9.10
2019-03-24T23:18:36.818Z,9.10
2019-03-24T23:21:05.211Z,9.10
2019-03-24T23:23:33.642Z,9.00
2019-03-24T23:26:02.025Z,9.00
2019-03-24T23:28:30.425Z,9.00
2019-03-24T23:30:58.826Z,9.00
2019-03-24T23:33:27.255Z,9.00
2019-03-24T23:35:55.669Z,8.90
2019-03-24T23:38:24.078Z,8.90
2019-03-24T23:40:52.565Z,8.90
2019-03-24T23:43:21.218Z,8.90
2019-03-24T23:45:49.842Z,8.90
2019-03-24T23:48:18.253Z,8.80
2019-03-24T23:50:47.088Z,8.80
2019-03-24T23:53:15.498Z,8.80
2019-03-24T23:55:43.912Z,8.80
2019-03-24T23:58:12.303Z,8.80
